createdAt,value
2023-02-14T00:02:26.793Z,110.70
2023-02-14T00:04:55.274Z,112.78
2023-02-14T00:07:22.252Z,106.90
2023-02-14T00:09:49.185Z,107.78
2023-02-14T00:12:16.122Z,103.88
2023-02-14T00:15:01.712Z,97.78
2023-02-14T00:17:28.698Z,86.82
2023-02-14T00:19:57.191Z,78.70
2023-02-14T00:22:24.165Z,82.53
2023-02-14T00:24:51.209Z,97.35
2023-02-14T00:27:18.223Z,88.80
2023-02-14T00:29:45.211Z,96.88
2023-02-14T00:32:12.262Z,91.55
2023-02-14T00:34:40.614Z,96.10
2023-02-14T00:37:09.057Z,82.45
2023-02-14T00:39:36.022Z,77.38
2023-02-14T00:42:03.145Z,77.93
2023-02-14T00:44:30.164Z,70.78
2023-02-14T00:46:57.152Z,58.73
2023-02-14T00:49:24.208Z,51.85
2023-02-14T00:51:51.296Z,51.25
2023-02-14T00:54:19.698Z,37.75
2023-02-14T00:56:46.686Z,39.92
2023-02-14T00:59:13.758Z,33.63
2023-02-14T01:01:40.727Z,30.20
2023-02-14T01:04:08.079Z,31.75
2023-02-14T01:06:35.064Z,39.67
2023-02-14T01:09:02.186Z,32.15
2023-02-14T01:11:30.639Z,40.63
2023-02-14T01:13:58.229Z,36.13
2023-02-14T01:16:26.257Z,30.45
2023-02-14T01:18:53.325Z,31.02
2023-02-14T01:21:21.208Z,37.42
2023-02-14T01:23:49.342Z,45.53
2023-02-14T01:26:16.645Z,37.28
2023-02-14T01:28:47.783Z,35.00
2023-02-14T01:31:16.094Z,36.10
2023-02-14T01:33:43.839Z,36.20
2023-02-14T01:36:15.249Z,34.10
2023-02-14T01:38:42.332Z,35.03
2023-02-14T01:41:09.456Z,35.95
2023-02-14T01:43:51.125Z,34.72
2023-02-14T01:46:18.211Z,34.72
2023-02-14T01:48:45.801Z,33.33
2023-02-14T01:51:13.033Z,32.45
2023-02-14T01:53:40.131Z,32.42
2023-02-14T01:56:08.459Z,34.60
2023-02-14T01:58:38.449Z,39.30
2023-02-14T02:01:07.317Z,34.13
2023-02-14T02:03:35.442Z,29.67
2023-02-14T02:06:05.782Z,34.42
2023-02-14T02:08:34.703Z,27.60
2023-02-14T02:11:01.993Z,30.88
2023-02-14T02:13:29.074Z,30.27
2023-02-14T02:16:01.280Z,28.92
2023-02-14T02:18:35.454Z,28.15
2023-02-14T02:21:13.141Z,27.00
2023-02-14T02:24:02.393Z,26.83
2023-02-14T02:26:44.391Z,31.13
2023-02-14T02:29:29.277Z,32.13
2023-02-14T02:32:11.128Z,31.90
2023-02-14T02:34:56.203Z,29.48
2023-02-14T02:37:26.849Z,33.60
2023-02-14T02:40:03.895Z,31.20
2023-02-14T02:42:34.324Z,32.47
2023-02-14T02:45:06.712Z,22.90
2023-02-14T02:47:38.176Z,24.90
2023-02-14T02:50:30.708Z,23.42
2023-02-14T02:53:06.554Z,20.43
2023-02-14T02:55:57.198Z,18.50
2023-02-14T02:58:25.852Z,20.60
2023-02-14T03:00:54.240Z,22.05
2023-02-14T03:03:40.526Z,18.10
2023-02-14T03:06:08.989Z,21.50
2023-02-14T03:08:35.995Z,20.58
2023-02-14T03:11:05.009Z,19.70
2023-02-14T03:13:50.418Z,24.03
2023-02-14T03:16:23.776Z,23.20
2023-02-14T03:19:16.406Z,21.30
2023-02-14T03:21:49.202Z,25.77
2023-02-14T03:24:19.835Z,21.05
2023-02-14T03:26:48.914Z,21.50
2023-02-14T03:29:19.891Z,22.75
2023-02-14T03:31:55.701Z,21.67
2023-02-14T03:34:27.399Z,24.73
2023-02-14T03:36:58.797Z,23.80
2023-02-14T03:39:28.138Z,20.85
2023-02-14T03:41:57.903Z,20.33
2023-02-14T03:44:28.586Z,20.77
2023-02-14T03:46:58.811Z,20.40
2023-02-14T03:49:27.781Z,22.00
2023-02-14T03:51:56.773Z,20.17
2023-02-14T03:54:24.557Z,22.95
2023-02-14T03:56:52.887Z,23.57
2023-02-14T03:59:21.864Z,21.02
2023-02-14T04:01:50.698Z,22.58
2023-02-14T04:04:19.895Z,21.30
2023-02-14T04:06:46.855Z,23.42
2023-02-14T04:09:15.341Z,22.97
2023-02-14T04:11:42.380Z,36.65
2023-02-14T04:14:09.346Z,21.13
2023-02-14T04:16:56.374Z,20.45
2023-02-14T04:19:23.557Z,18.20
2023-02-14T04:21:50.723Z,18.95
2023-02-14T04:24:19.525Z,15.57
2023-02-14T04:27:10.642Z,17.70
2023-02-14T04:29:38.977Z,19.33
2023-02-14T04:32:06.869Z,17.25
2023-02-14T04:34:33.952Z,15.60
2023-02-14T04:37:01.095Z,16.58
2023-02-14T04:39:29.548Z,16.30
2023-02-14T04:41:56.605Z,17.42
2023-02-14T04:44:23.874Z,17.63
2023-02-14T04:46:50.961Z,18.23
2023-02-14T04:49:18.218Z,19.02
2023-02-14T04:51:45.866Z,17.23
2023-02-14T04:54:13.003Z,19.08
2023-02-14T04:56:41.412Z,17.60
2023-02-14T04:59:08.842Z,20.07
2023-02-14T05:01:36.127Z,23.05
2023-02-14T05:04:03.339Z,22.05
2023-02-14T05:06:30.435Z,25.33
2023-02-14T05:08:57.804Z,25.02
2023-02-14T05:11:24.910Z,24.57
2023-02-14T05:13:53.279Z,26.88
2023-02-14T05:16:20.243Z,26.77
2023-02-14T05:18:47.668Z,27.30
2023-02-14T05:21:14.711Z,28.23
2023-02-14T05:23:41.744Z,28.47
2023-02-14T05:26:08.790Z,26.02
2023-02-14T05:28:35.793Z,30.90
2023-02-14T05:31:04.453Z,26.25
2023-02-14T05:33:31.430Z,25.33
2023-02-14T05:35:58.937Z,29.73
2023-02-14T05:38:25.936Z,26.90
2023-02-14T05:40:52.968Z,25.55
2023-02-14T05:43:20.034Z,27.38
2023-02-14T05:45:47.698Z,28.45
2023-02-14T05:48:18.046Z,26.80
2023-02-14T05:50:45.674Z,27.02
2023-02-14T05:53:12.937Z,30.08
2023-02-14T05:55:39.931Z,26.63
2023-02-14T05:58:07.345Z,24.48
2023-02-14T06:00:34.955Z,34.15
2023-02-14T06:03:01.936Z,34.60
2023-02-14T06:05:30.447Z,36.97
2023-02-14T06:07:57.503Z,39.85
2023-02-14T06:10:25.331Z,64.93
2023-02-14T06:12:54.969Z,40.03
2023-02-14T06:15:21.987Z,44.90
2023-02-14T06:17:52.929Z,39.85
2023-02-14T06:20:20.022Z,43.30
2023-02-14T06:22:48.509Z,43.22
2023-02-14T06:25:15.507Z,41.80
2023-02-14T06:27:42.550Z,38.28
2023-02-14T06:30:10.670Z,44.25
2023-02-14T06:32:48.842Z,46.35
2023-02-14T06:35:16.051Z,49.67
2023-02-14T06:37:45.378Z,63.25
2023-02-14T06:40:15.195Z,67.57
2023-02-14T06:42:42.468Z,64.40
2023-02-14T06:45:10.078Z,62.90
2023-02-14T06:47:37.253Z,66.18
2023-02-14T06:50:05.348Z,53.97
2023-02-14T06:52:32.406Z,57.63
2023-02-14T06:54:59.436Z,53.80
2023-02-14T06:57:28.020Z,58.33
2023-02-14T06:59:55.058Z,56.13
2023-02-14T07:02:24.775Z,55.83
2023-02-14T07:04:52.079Z,50.97
2023-02-14T07:07:19.225Z,58.42
2023-02-14T07:09:46.185Z,52.90
2023-02-14T07:12:13.292Z,49.63
2023-02-14T07:14:41.859Z,45.30
2023-02-14T07:17:08.895Z,48.83
2023-02-14T07:19:35.908Z,57.85
2023-02-14T07:22:02.965Z,58.22
2023-02-14T07:24:30.171Z,68.15
2023-02-14T07:26:57.203Z,61.33
2023-02-14T07:29:24.216Z,66.82
2023-02-14T07:31:52.922Z,106.65
2023-02-14T07:34:20.084Z,82.28
2023-02-14T07:36:47.109Z,94.43
2023-02-14T07:39:14.234Z,79.55
2023-02-14T07:41:41.323Z,68.38
2023-02-14T07:44:10.333Z,70.38
2023-02-14T07:46:39.168Z,71.47
2023-02-14T07:49:10.821Z,73.90
2023-02-14T07:51:38.554Z,55.58
2023-02-14T07:54:05.880Z,49.80
2023-02-14T07:56:32.920Z,53.63
2023-02-14T07:59:00.142Z,47.67
2023-02-14T08:01:27.781Z,50.60
2023-02-14T08:03:54.867Z,40.17
2023-02-14T08:06:23.549Z,42.25
2023-02-14T08:08:50.568Z,43.67
2023-02-14T08:11:37.706Z,44.25
2023-02-14T08:14:05.482Z,42.55
2023-02-14T08:16:34.407Z,43.05
2023-02-14T08:19:02.067Z,28.75
2023-02-14T08:21:30.694Z,17.08
2023-02-14T08:23:58.108Z,17.73
2023-02-14T08:26:25.283Z,15.88
2023-02-14T08:28:52.400Z,15.82
2023-02-14T08:31:34.298Z,13.03
2023-02-14T08:34:02.476Z,15.55
2023-02-14T08:36:33.080Z,16.63
2023-02-14T08:39:00.307Z,16.33
2023-02-14T08:41:27.562Z,14.32
2023-02-14T08:43:54.524Z,14.45
2023-02-14T08:46:21.624Z,14.93
2023-02-14T08:48:50.283Z,17.33
2023-02-14T08:51:17.829Z,15.40
2023-02-14T08:53:46.493Z,17.83
2023-02-14T08:56:14.871Z,15.95
2023-02-14T08:58:41.976Z,12.25
2023-02-14T09:01:09.646Z,12.60
2023-02-14T09:03:38.340Z,15.32
2023-02-14T09:06:06.099Z,21.45
2023-02-14T09:08:35.161Z,14.50
2023-02-14T09:11:08.223Z,19.50
2023-02-14T09:13:35.361Z,17.85
2023-02-14T09:16:03.800Z,15.70
2023-02-14T09:18:31.125Z,17.65
2023-02-14T09:20:58.401Z,18.87
2023-02-14T09:23:25.610Z,16.00
2023-02-14T09:25:59.888Z,18.45
2023-02-14T09:28:28.752Z,14.30
2023-02-14T09:30:55.816Z,17.10
2023-02-14T09:33:23.760Z,17.87
2023-02-14T09:36:09.334Z,14.63
2023-02-14T09:38:36.409Z,18.40
2023-02-14T09:41:07.017Z,18.02
2023-02-14T09:43:38.520Z,14.20
2023-02-14T09:46:08.818Z,15.70
2023-02-14T09:48:36.720Z,18.42
2023-02-14T09:51:05.619Z,20.15
2023-02-14T09:53:35.348Z,20.40
2023-02-14T09:56:06.027Z,19.42
2023-02-14T09:58:34.900Z,21.97
2023-02-14T10:01:05.852Z,22.83
2023-02-14T10:04:08.546Z,22.35
2023-02-14T10:06:51.020Z,21.08
2023-02-14T10:09:24.739Z,21.95
2023-02-14T10:11:55.039Z,22.00
2023-02-14T10:14:23.443Z,22.75
2023-02-14T10:16:54.394Z,22.20
2023-02-14T10:19:23.098Z,23.75
2023-02-14T10:21:52.262Z,23.02
2023-02-14T10:24:21.603Z,19.17
2023-02-14T10:26:49.656Z,19.70
2023-02-14T10:29:17.798Z,19.90
2023-02-14T10:31:54.557Z,22.23
2023-02-14T10:37:46.353Z,16.90
2023-02-14T10:40:23.833Z,20.23
2023-02-14T10:42:53.734Z,19.15
2023-02-14T10:45:24.297Z,18.35
2023-02-14T10:47:54.632Z,21.48
2023-02-14T10:50:23.989Z,15.23
2023-02-14T10:52:59.229Z,20.70
2023-02-14T10:55:33.072Z,15.80
2023-02-14T10:58:02.819Z,18.75
2023-02-14T11:00:33.331Z,18.67
2023-02-14T11:03:05.622Z,21.37
2023-02-14T11:05:36.032Z,21.13
2023-02-14T11:08:13.694Z,18.98
2023-02-14T11:10:41.115Z,17.55
2023-02-14T11:13:22.868Z,19.35
2023-02-14T11:15:51.873Z,20.37
2023-02-14T11:18:22.166Z,17.45
2023-02-14T11:20:59.326Z,14.25
2023-02-14T11:23:31.685Z,19.95
2023-02-14T11:26:00.848Z,19.75
2023-02-14T11:28:28.342Z,17.57
2023-02-14T11:30:55.659Z,21.52
2023-02-14T11:33:38.453Z,20.67
2023-02-14T11:36:10.022Z,20.88
2023-02-14T11:38:40.160Z,20.08
2023-02-14T11:41:08.504Z,19.50
2023-02-14T11:43:37.286Z,21.77
2023-02-14T11:46:05.996Z,21.55
2023-02-14T11:48:38.976Z,24.58
2023-02-14T11:51:07.328Z,21.55
2023-02-14T11:53:44.949Z,21.90
2023-02-14T11:56:13.707Z,23.25
2023-02-14T11:58:43.034Z,21.80
2023-02-14T12:01:12.809Z,20.45
2023-02-14T12:03:44.205Z,21.67
2023-02-14T12:06:12.021Z,17.90
2023-02-14T12:08:42.058Z,20.02
2023-02-14T12:11:20.688Z,20.65
2023-02-14T12:13:51.956Z,16.38
2023-02-14T12:16:21.640Z,18.90
2023-02-14T12:18:53.260Z,17.27
2023-02-14T12:21:33.926Z,18.58
2023-02-14T12:24:06.199Z,17.13
2023-02-14T12:26:36.083Z,16.48
2023-02-14T12:29:06.552Z,20.00
2023-02-14T12:31:33.776Z,20.83
2023-02-14T12:34:02.121Z,18.85
2023-02-14T12:36:39.713Z,20.13
2023-02-14T12:39:11.357Z,24.25
2023-02-14T12:41:48.489Z,19.33
2023-02-14T12:44:21.790Z,19.00
2023-02-14T12:46:53.513Z,18.73
2023-02-14T12:49:27.650Z,21.90
2023-02-14T12:51:59.675Z,22.48
2023-02-14T12:54:32.801Z,23.10
2023-02-14T12:57:04.071Z,19.10
2023-02-14T12:59:40.937Z,20.63
2023-02-14T13:02:26.201Z,19.48
2023-02-14T13:05:01.922Z,19.38
2023-02-14T13:07:39.176Z,22.17
2023-02-14T13:10:12.617Z,29.33
2023-02-14T13:12:42.612Z,31.98
2023-02-14T13:15:55.247Z,32.55
2023-02-14T13:18:28.498Z,18.95
2023-02-14T13:20:57.431Z,22.73
2023-02-14T13:23:27.537Z,21.47
2023-02-14T13:25:57.944Z,20.35
2023-02-14T13:28:27.300Z,21.05
2023-02-14T13:30:55.341Z,21.95
2023-02-14T13:33:33.616Z,22.85
2023-02-14T13:36:02.598Z,25.23
2023-02-14T13:38:31.862Z,22.10
2023-02-14T13:41:00.244Z,24.90
2023-02-14T13:43:48.324Z,27.67
2023-02-14T13:46:16.870Z,24.52
2023-02-14T13:48:55.333Z,26.40
2023-02-14T13:51:22.443Z,23.13
2023-02-14T13:53:51.518Z,22.67
2023-02-14T13:56:32.434Z,24.63
2023-02-14T13:59:03.234Z,24.08
2023-02-14T14:01:39.196Z,22.63
2023-02-14T14:04:07.683Z,21.95
2023-02-14T14:06:53.330Z,25.38
2023-02-14T14:09:35.096Z,22.90
2023-02-14T14:12:02.237Z,22.52
2023-02-14T14:14:49.955Z,20.57
2023-02-14T14:17:23.322Z,22.00
2023-02-14T14:19:50.710Z,22.10
2023-02-14T14:22:18.026Z,24.40
2023-02-14T14:24:52.434Z,24.92
2023-02-14T14:27:21.941Z,27.57
2023-02-14T14:29:50.737Z,24.42
2023-02-14T14:32:19.571Z,22.33
2023-02-14T14:34:51.007Z,22.67
2023-02-14T14:37:19.428Z,26.48
2023-02-14T14:39:50.661Z,25.10
2023-02-14T14:42:17.726Z,25.63
2023-02-14T14:44:46.995Z,21.33
2023-02-14T14:47:16.985Z,23.70
2023-02-14T14:49:44.353Z,22.27
2023-02-14T14:52:20.132Z,26.67
2023-02-14T14:54:47.267Z,28.58
2023-02-14T14:57:16.015Z,25.38
2023-02-14T14:59:43.056Z,26.85
2023-02-14T15:02:21.779Z,25.48
2023-02-14T15:04:49.061Z,28.40
2023-02-14T15:07:24.082Z,31.23
2023-02-14T15:09:51.490Z,28.98
2023-02-14T15:12:39.681Z,38.92
2023-02-14T15:15:10.205Z,39.55
2023-02-14T15:17:37.299Z,33.07
2023-02-14T15:20:06.781Z,37.10
2023-02-14T15:22:38.366Z,34.00
2023-02-14T15:25:08.336Z,30.85
2023-02-14T15:27:39.517Z,35.05
2023-02-14T15:30:09.890Z,38.23
2023-02-14T15:32:37.422Z,33.90
2023-02-14T15:35:06.054Z,35.95
2023-02-14T15:37:33.473Z,25.85
2023-02-14T15:40:02.563Z,24.20
2023-02-14T15:42:32.619Z,26.67
2023-02-14T15:45:16.149Z,22.95
2023-02-14T15:47:44.198Z,24.88
2023-02-14T15:50:14.839Z,25.45
2023-02-14T15:52:42.245Z,21.70
2023-02-14T15:55:11.815Z,22.17
2023-02-14T15:57:39.012Z,22.60
2023-02-14T16:00:11.407Z,27.35
2023-02-14T16:02:40.752Z,29.67
2023-02-14T16:05:14.282Z,25.33
2023-02-14T16:07:41.326Z,24.07
2023-02-14T16:10:21.040Z,31.38
2023-02-14T16:12:57.707Z,35.97
2023-02-14T16:15:26.781Z,35.53
2023-02-14T16:18:16.741Z,35.53
2023-02-14T16:20:47.064Z,38.13
2023-02-14T16:23:15.106Z,48.40
2023-02-14T16:25:43.858Z,48.25
2023-02-14T16:28:11.258Z,53.35
2023-02-14T16:30:38.797Z,46.70
2023-02-14T16:33:06.374Z,49.80
2023-02-14T16:35:33.618Z,51.50
2023-02-14T16:38:00.868Z,57.88
2023-02-14T16:40:28.132Z,49.70
2023-02-14T16:42:59.183Z,43.30
2023-02-14T16:45:26.188Z,39.40
2023-02-14T16:47:53.242Z,44.33
2023-02-14T16:50:20.552Z,42.97
2023-02-14T16:52:50.932Z,46.90
2023-02-14T16:55:20.008Z,127.18
2023-02-14T16:57:48.594Z,186.73
2023-02-14T17:00:16.941Z,211.38
2023-02-14T17:02:45.424Z,146.98
2023-02-14T17:05:12.871Z,113.28
2023-02-14T17:07:42.390Z,96.00
2023-02-14T17:10:11.523Z,82.97
2023-02-14T17:12:42.020Z,77.43
2023-02-14T17:15:12.465Z,67.70
2023-02-14T17:17:39.493Z,73.88
2023-02-14T17:20:10.201Z,72.00
2023-02-14T17:22:37.807Z,55.97
2023-02-14T17:25:05.477Z,51.03
2023-02-14T17:27:32.685Z,43.08
2023-02-14T17:29:59.908Z,104.25
2023-02-14T17:32:27.758Z,80.15
2023-02-14T17:34:54.922Z,61.90
2023-02-14T17:37:23.659Z,59.15
2023-02-14T17:39:52.508Z,48.45
2023-02-14T17:42:19.523Z,47.45
2023-02-14T17:44:46.641Z,63.22
2023-02-14T17:47:16.253Z,79.73
2023-02-14T17:49:44.310Z,75.07
2023-02-14T17:52:12.263Z,79.03
2023-02-14T17:54:40.823Z,55.22
2023-02-14T17:57:08.080Z,41.95
2023-02-14T17:59:35.586Z,36.53
2023-02-14T18:02:02.713Z,42.00
2023-02-14T18:04:30.469Z,37.13
2023-02-14T18:06:57.725Z,43.42
2023-02-14T18:09:25.939Z,42.22
2023-02-14T18:12:00.712Z,49.00
2023-02-14T18:14:28.065Z,55.40
2023-02-14T18:16:55.297Z,44.83
2023-02-14T18:19:22.519Z,41.08
2023-02-14T18:21:49.867Z,41.97
2023-02-14T18:24:17.129Z,37.07
2023-02-14T18:26:44.742Z,36.88
2023-02-14T18:29:14.073Z,40.60
2023-02-14T18:31:42.199Z,51.42
2023-02-14T18:34:09.961Z,50.50
2023-02-14T18:36:39.233Z,39.27
2023-02-14T18:39:07.131Z,40.83
2023-02-14T18:41:34.444Z,44.28
2023-02-14T18:44:01.786Z,50.53
2023-02-14T18:46:31.328Z,40.55
2023-02-14T18:48:58.824Z,39.70
2023-02-14T18:51:27.620Z,46.70
2023-02-14T18:53:56.165Z,43.72
2023-02-14T18:56:24.098Z,48.15
2023-02-14T18:58:56.508Z,43.90
2023-02-14T19:01:26.313Z,44.30
2023-02-14T19:03:55.699Z,57.63
2023-02-14T19:06:23.028Z,47.90
2023-02-14T19:08:50.057Z,47.25
2023-02-14T19:11:18.325Z,48.20
2023-02-14T19:13:45.799Z,52.53
2023-02-14T19:16:14.386Z,45.20
2023-02-14T19:18:42.122Z,39.10
2023-02-14T19:21:11.648Z,40.45
2023-02-14T19:23:39.203Z,39.90
2023-02-14T19:26:10.329Z,42.27
2023-02-14T19:28:37.975Z,44.72
2023-02-14T19:31:05.369Z,51.20
2023-02-14T19:33:32.752Z,36.90
2023-02-14T19:36:00.768Z,35.13
2023-02-14T19:38:29.406Z,33.03
2023-02-14T19:40:58.052Z,32.55
2023-02-14T19:43:25.353Z,35.80
2023-02-14T19:45:53.217Z,36.85
2023-02-14T19:48:20.512Z,46.33
2023-02-14T19:50:47.834Z,49.03
2023-02-14T19:53:15.334Z,42.60
2023-02-14T19:55:43.829Z,37.97
2023-02-14T19:58:11.133Z,44.33
2023-02-14T20:00:38.616Z,46.75
2023-02-14T20:03:12.072Z,54.92
2023-02-14T20:05:39.647Z,43.35
2023-02-14T20:08:07.175Z,46.03
2023-02-14T20:10:34.472Z,42.70
2023-02-14T20:13:03.199Z,46.55
2023-02-14T20:15:32.494Z,46.00
2023-02-14T20:17:59.863Z,42.88
2023-02-14T20:20:27.166Z,44.13
2023-02-14T20:22:54.503Z,43.28
2023-02-14T20:25:21.714Z,41.33
2023-02-14T20:27:53.017Z,52.30
2023-02-14T20:30:22.431Z,43.33
2023-02-14T20:32:54.926Z,42.78
2023-02-14T20:35:24.513Z,43.53
2023-02-14T20:37:52.599Z,45.80
2023-02-14T20:40:20.971Z,36.30
2023-02-14T20:42:48.929Z,46.35
2023-02-14T20:45:16.406Z,44.47
2023-02-14T20:47:47.743Z,36.22
2023-02-14T20:50:16.204Z,35.88
2023-02-14T20:52:43.474Z,33.03
2023-02-14T20:55:10.649Z,29.33
2023-02-14T20:57:38.647Z,30.38
2023-02-14T21:00:08.827Z,31.20
2023-02-14T21:02:36.185Z,29.40
2023-02-14T21:05:05.013Z,30.95
2023-02-14T21:07:32.066Z,31.58
2023-02-14T21:09:59.335Z,27.17
2023-02-14T21:12:26.601Z,30.30
2023-02-14T21:14:53.842Z,30.90
2023-02-14T21:17:21.141Z,32.97
2023-02-14T21:19:48.489Z,27.25
2023-02-14T21:22:17.366Z,30.95
2023-02-14T21:24:44.820Z,28.88
2023-02-14T21:27:12.030Z,32.20
2023-02-14T21:29:39.240Z,31.80
2023-02-14T21:32:09.744Z,33.30
2023-02-14T21:34:37.140Z,33.13
2023-02-14T21:37:04.340Z,33.83
2023-02-14T21:39:35.836Z,32.30
2023-02-14T21:42:03.191Z,36.55
2023-02-14T21:44:49.036Z,35.72
2023-02-14T21:47:16.203Z,37.15
2023-02-14T21:50:02.197Z,31.20
2023-02-14T21:52:30.426Z,31.13
2023-02-14T21:54:58.787Z,33.42
2023-02-14T21:57:26.190Z,34.75
2023-02-14T21:59:53.761Z,37.35
2023-02-14T22:02:21.049Z,36.60
2023-02-14T22:04:48.170Z,33.45
2023-02-14T22:07:15.143Z,39.25
2023-02-14T22:09:42.171Z,37.08
2023-02-14T22:12:10.935Z,35.78
2023-02-14T22:14:38.179Z,33.08
2023-02-14T22:17:05.121Z,35.30
2023-02-14T22:19:32.115Z,38.38
2023-02-14T22:21:59.236Z,38.45
2023-02-14T22:24:26.325Z,41.63
2023-02-14T22:26:53.297Z,38.72
2023-02-14T22:29:21.650Z,39.33
2023-02-14T22:31:48.684Z,38.53
2023-02-14T22:34:17.931Z,39.67
2023-02-14T22:36:44.931Z,36.63
2023-02-14T22:39:14.093Z,41.67
2023-02-14T22:41:41.180Z,45.97
2023-02-14T22:44:08.306Z,47.35
2023-02-14T22:46:37.083Z,44.20
2023-02-14T22:49:04.762Z,42.42
2023-02-14T22:51:32.856Z,41.95
2023-02-14T22:54:01.305Z,44.20
2023-02-14T22:56:29.413Z,163.60
2023-02-14T22:58:57.625Z,352.17
2023-02-14T23:01:25.219Z,113.57
2023-02-14T23:03:54.923Z,152.68
2023-02-14T23:06:37.148Z,146.83
2023-02-14T23:09:04.707Z,83.05
2023-02-14T23:11:33.010Z,69.63
2023-02-14T23:14:18.807Z,61.90
2023-02-14T23:17:12.094Z,74.72
2023-02-14T23:19:58.979Z,80.00
2023-02-14T23:22:27.053Z,81.28
2023-02-14T23:24:55.510Z,72.15
2023-02-14T23:27:23.562Z,64.40
2023-02-14T23:29:50.648Z,62.17
2023-02-14T23:32:17.643Z,56.17
2023-02-14T23:34:46.171Z,59.28
2023-02-14T23:37:13.926Z,41.92
2023-02-14T23:39:41.094Z,41.83
2023-02-14T23:42:09.222Z,47.35
2023-02-14T23:44:36.628Z,36.53
2023-02-14T23:47:04.651Z,36.30
2023-02-14T23:49:32.677Z,32.53
2023-02-14T23:52:01.431Z,33.00
2023-02-14T23:54:28.555Z,33.28
2023-02-14T23:56:55.521Z,39.27
2023-02-14T23:59:22.612Z,37.63
